sensor_id;sensor_type;location;lat;lon;timestamp;pressure;altitude;pressure_sealevel;temperature;humidity
22580;BME280;11456;47.030;15.396;2023-01-26T00:01:39;98096.78;;;2.14;100.00
22580;BME280;11456;47.030;15.396;2023-01-26T00:04:06;98102.44;;;2.08;100.00
22580;BME280;11456;47.030;15.396;2023-01-26T00:06:32;98101.66;;;2.06;100.00
22580;BME280;11456;47.030;15.396;2023-01-26T00:08:59;98096.19;;;2.09;100.00
22580;BME280;11456;47.030;15.396;2023-01-26T00:11:26;98095.97;;;1.98;100.00
22580;BME280;11456;47.030;15.396;2023-01-26T00:13:53;98090.81;;;1.95;100.00
22580;BME280;11456;47.030;15.396;2023-01-26T00:16:20;98093.03;;;1.87;100.00
22580;BME280;11456;47.030;15.396;2023-01-26T00:18:47;98097.50;;;2.02;100.00
22580;BME280;11456;47.030;15.396;2023-01-26T00:21:14;98101.94;;;2.01;100.00
22580;BME280;11456;47.030;15.396;2023-01-26T00:23:42;98093.91;;;2.03;100.00
22580;BME280;11456;47.030;15.396;2023-01-26T00:26:09;98094.75;;;2.04;100.00
22580;BME280;11456;47.030;15.396;2023-01-26T00:28:37;98101.28;;;1.98;100.00
22580;BME280;11456;47.030;15.396;2023-01-26T00:31:12;98095.78;;;2.01;100.00
22580;BME280;11456;47.030;15.396;2023-01-26T00:33:39;98103.66;;;2.03;100.00
22580;BME280;11456;47.030;15.396;2023-01-26T00:36:08;98110.00;;;2.00;100.00
22580;BME280;11456;47.030;15.396;2023-01-26T00:38:35;98099.38;;;2.00;100.00
22580;BME280;11456;47.030;15.396;2023-01-26T00:41:01;98098.66;;;2.12;100.00
22580;BME280;11456;47.030;15.396;2023-01-26T00:43:28;98099.72;;;1.94;100.00
22580;BME280;11456;47.030;15.396;2023-01-26T00:45:54;98091.97;;;2.05;100.00
22580;BME280;11456;47.030;15.396;2023-01-26T00:48:21;98090.81;;;1.95;100.00
22580;BME280;11456;47.030;15.396;2023-01-26T00:50:50;98099.38;;;2.00;100.00
22580;BME280;11456;47.030;15.396;2023-01-26T00:53:17;98092.22;;;1.71;100.00
22580;BME280;11456;47.030;15.396;2023-01-26T00:55:44;98078.66;;;1.91;100.00
22580;BME280;11456;47.030;15.396;2023-01-26T00:58:10;98080.72;;;1.86;100.00
22580;BME280;11456;47.030;15.396;2023-01-26T01:00:37;98083.72;;;1.80;100.00
22580;BME280;11456;47.030;15.396;2023-01-26T01:03:04;98082.00;;;2.24;100.00
22580;BME280;11456;47.030;15.396;2023-01-26T01:05:31;98081.84;;;1.82;100.00
22580;BME280;11456;47.030;15.396;2023-01-26T01:07:58;98075.34;;;1.72;100.00
22580;BME280;11456;47.030;15.396;2023-01-26T01:10:25;98073.53;;;1.88;100.00
22580;BME280;11456;47.030;15.396;2023-01-26T01:12:53;98077.53;;;1.95;100.00
22580;BME280;11456;47.030;15.396;2023-01-26T01:15:21;98074.34;;;2.04;100.00
22580;BME280;11456;47.030;15.396;2023-01-26T01:17:48;98066.78;;;2.12;100.00
22580;BME280;11456;47.030;15.396;2023-01-26T01:20:14;98065.78;;;1.99;100.00
22580;BME280;11456;47.030;15.396;2023-01-26T01:22:41;98064.72;;;2.17;100.00
22580;BME280;11456;47.030;15.396;2023-01-26T01:25:07;98072.34;;;2.23;100.00
22580;BME280;11456;47.030;15.396;2023-01-26T01:27:34;98075.84;;;2.24;100.00
22580;BME280;11456;47.030;15.396;2023-01-26T01:30:01;98068.94;;;2.35;100.00
22580;BME280;11456;47.030;15.396;2023-01-26T01:32:33;98068.81;;;2.37;100.00
22580;BME280;11456;47.030;15.396;2023-01-26T01:35:00;98071.44;;;2.53;100.00
22580;BME280;11456;47.030;15.396;2023-01-26T01:37:27;98067.47;;;2.60;100.00
22580;BME280;11456;47.030;15.396;2023-01-26T01:39:54;98060.53;;;2.71;99.64
22580;BME280;11456;47.030;15.396;2023-01-26T01:42:21;98065.34;;;2.51;99.55
22580;BME280;11456;47.030;15.396;2023-01-26T01:45:22;98056.22;;;2.40;100.00
22580;BME280;11456;47.030;15.396;2023-01-26T01:47:34;98058.09;;;2.38;100.00
22580;BME280;11456;47.030;15.396;2023-01-26T01:50:00;98056.44;;;2.52;100.00
22580;BME280;11456;47.030;15.396;2023-01-26T01:52:29;98053.97;;;2.49;100.00
22580;BME280;11456;47.030;15.396;2023-01-26T01:55:14;98056.78;;;2.46;100.00
22580;BME280;11456;47.030;15.396;2023-01-26T01:57:47;98051.50;;;2.60;100.00
22580;BME280;11456;47.030;15.396;2023-01-26T02:00:18;98037.06;;;2.64;99.88
22580;BME280;11456;47.030;15.396;2023-01-26T02:02:56;98041.72;;;2.60;100.00
22580;BME280;11456;47.030;15.396;2023-01-26T02:08:15;98037.84;;;2.80;99.67
22580;BME280;11456;47.030;15.396;2023-01-26T02:10:43;98036.78;;;2.54;98.31
22580;BME280;11456;47.030;15.396;2023-01-26T02:13:11;98032.31;;;2.55;99.38
22580;BME280;11456;47.030;15.396;2023-01-26T02:15:40;98028.53;;;2.59;99.30
22580;BME280;11456;47.030;15.396;2023-01-26T02:18:07;98024.22;;;2.56;99.96
22580;BME280;11456;47.030;15.396;2023-01-26T02:28:11;98006.50;;;2.42;97.70
22580;BME280;11456;47.030;15.396;2023-01-26T02:30:38;98006.78;;;2.52;98.08
22580;BME280;11456;47.030;15.396;2023-01-26T02:33:04;98005.91;;;2.37;97.80
22580;BME280;11456;47.030;15.396;2023-01-26T02:35:32;97994.53;;;2.35;97.67
22580;BME280;11456;47.030;15.396;2023-01-26T02:38:00;97996.50;;;2.46;97.45
22580;BME280;11456;47.030;15.396;2023-01-26T02:40:37;97989.03;;;2.67;97.25
22580;BME280;11456;47.030;15.396;2023-01-26T02:43:08;97979.81;;;2.58;96.12
22580;BME280;11456;47.030;15.396;2023-01-26T02:45:35;97975.06;;;2.49;97.00
22580;BME280;11456;47.030;15.396;2023-01-26T02:48:05;97977.72;;;2.35;96.74
22580;BME280;11456;47.030;15.396;2023-01-26T02:50:33;97969.81;;;2.19;96.94
22580;BME280;11456;47.030;15.396;2023-01-26T02:53:00;97967.47;;;2.29;97.97
22580;BME280;11456;47.030;15.396;2023-01-26T02:55:28;97972.50;;;2.48;97.05
22580;BME280;11456;47.030;15.396;2023-01-26T02:58:05;97968.44;;;2.42;97.00
22580;BME280;11456;47.030;15.396;2023-01-26T03:00:34;97964.34;;;2.36;97.46
22580;BME280;11456;47.030;15.396;2023-01-26T03:03:19;97949.69;;;2.15;97.61
22580;BME280;11456;47.030;15.396;2023-01-26T03:05:48;97953.31;;;2.14;98.60
22580;BME280;11456;47.030;15.396;2023-01-26T03:08:16;97959.03;;;2.36;98.54
22580;BME280;11456;47.030;15.396;2023-01-26T03:10:42;97949.41;;;2.76;97.61
22580;BME280;11456;47.030;15.396;2023-01-26T03:13:10;97946.88;;;2.61;96.25
22580;BME280;11456;47.030;15.396;2023-01-26T03:15:36;97936.78;;;2.52;96.33
22580;BME280;11456;47.030;15.396;2023-01-26T03:18:14;97936.53;;;2.42;96.33
22580;BME280;11456;47.030;15.396;2023-01-26T03:21:00;97936.81;;;2.23;97.03
22580;BME280;11456;47.030;15.396;2023-01-26T03:23:46;97937.00;;;2.20;97.66
22580;BME280;11456;47.030;15.396;2023-01-26T03:26:32;97932.41;;;2.51;97.30
22580;BME280;11456;47.030;15.396;2023-01-26T03:29:17;97924.28;;;2.54;96.79
22580;BME280;11456;47.030;15.396;2023-01-26T03:31:45;97927.69;;;2.56;96.58
22580;BME280;11456;47.030;15.396;2023-01-26T03:34:11;97918.88;;;2.55;96.46
22580;BME280;11456;47.030;15.396;2023-01-26T03:36:38;97918.00;;;2.40;96.93
22580;BME280;11456;47.030;15.396;2023-01-26T03:39:10;97917.84;;;2.29;97.00
22580;BME280;11456;47.030;15.396;2023-01-26T03:41:57;97916.03;;;2.16;98.52
22580;BME280;11456;47.030;15.396;2023-01-26T03:44:42;97901.88;;;2.15;99.56
22580;BME280;11456;47.030;15.396;2023-01-26T03:47:28;97905.09;;;2.20;99.41
22580;BME280;11456;47.030;15.396;2023-01-26T03:50:15;97906.06;;;2.48;98.50
22580;BME280;11456;47.030;15.396;2023-01-26T03:53:00;97902.16;;;2.53;96.83
22580;BME280;11456;47.030;15.396;2023-01-26T03:55:45;97897.28;;;2.60;96.14
22580;BME280;11456;47.030;15.396;2023-01-26T03:58:32;97897.97;;;2.49;97.13
22580;BME280;11456;47.030;15.396;2023-01-26T04:00:58;97900.72;;;2.33;98.40
22580;BME280;11456;47.030;15.396;2023-01-26T04:03:25;97888.97;;;2.23;99.31
22580;BME280;11456;47.030;15.396;2023-01-26T04:06:11;97895.81;;;2.27;100.00
22580;BME280;11456;47.030;15.396;2023-01-26T04:08:56;97890.09;;;2.33;100.00
22580;BME280;11456;47.030;15.396;2023-01-26T04:11:22;97892.84;;;2.18;100.00
22580;BME280;11456;47.030;15.396;2023-01-26T04:13:49;97885.91;;;2.43;99.96
22580;BME280;11456;47.030;15.396;2023-01-26T04:16:34;97884.63;;;2.36;99.77
22580;BME280;11456;47.030;15.396;2023-01-26T04:19:19;97880.03;;;2.24;100.00
22580;BME280;11456;47.030;15.396;2023-01-26T04:22:05;97881.66;;;2.41;100.00
22580;BME280;11456;47.030;15.396;2023-01-26T04:24:34;97882.50;;;2.41;99.84
22580;BME280;11456;47.030;15.396;2023-01-26T04:27:00;97872.09;;;2.79;97.42
22580;BME280;11456;47.030;15.396;2023-01-26T04:29:33;97875.88;;;2.49;98.80
22580;BME280;11456;47.030;15.396;2023-01-26T04:32:00;97875.31;;;2.29;98.69
22580;BME280;11456;47.030;15.396;2023-01-26T04:34:26;97873.97;;;2.36;99.20
22580;BME280;11456;47.030;15.396;2023-01-26T04:36:53;97868.94;;;2.18;99.18
22580;BME280;11456;47.030;15.396;2023-01-26T04:39:23;97863.72;;;2.02;100.00
22580;BME280;11456;47.030;15.396;2023-01-26T04:41:53;97863.06;;;2.13;100.00
22580;BME280;11456;47.030;15.396;2023-01-26T04:44:20;97858.81;;;1.96;100.00
22580;BME280;11456;47.030;15.396;2023-01-26T04:46:47;97863.25;;;1.95;100.00
22580;BME280;11456;47.030;15.396;2023-01-26T04:49:14;97859.19;;;2.04;100.00
22580;BME280;11456;47.030;15.396;2023-01-26T04:51:41;97858.69;;;1.83;100.00
22580;BME280;11456;47.030;15.396;2023-01-26T04:54:08;97863.56;;;1.91;100.00
22580;BME280;11456;47.030;15.396;2023-01-26T04:56:38;97855.97;;;1.85;100.00
22580;BME280;11456;47.030;15.396;2023-01-26T04:59:05;97856.31;;;1.93;100.00
22580;BME280;11456;47.030;15.396;2023-01-26T05:01:34;97855.94;;;1.99;100.00
22580;BME280;11456;47.030;15.396;2023-01-26T05:04:03;97854.59;;;1.64;100.00
22580;BME280;11456;47.030;15.396;2023-01-26T05:06:31;97869.97;;;1.87;100.00
22580;BME280;11456;47.030;15.396;2023-01-26T05:08:58;97854.97;;;1.86;100.00
22580;BME280;11456;47.030;15.396;2023-01-26T05:11:26;97856.13;;;1.82;100.00
22580;BME280;11456;47.030;15.396;2023-01-26T05:14:03;97853.28;;;1.71;100.00
22580;BME280;11456;47.030;15.396;2023-01-26T05:16:57;97853.28;;;1.71;100.00
22580;BME280;11456;47.030;15.396;2023-01-26T05:19:45;97857.91;;;1.67;100.00
22580;BME280;11456;47.030;15.396;2023-01-26T05:22:17;97852.69;;;1.51;100.00
22580;BME280;11456;47.030;15.396;2023-01-26T05:25:04;97858.00;;;1.80;100.00
22580;BME280;11456;47.030;15.396;2023-01-26T05:27:50;97855.16;;;1.69;100.00
22580;BME280;11456;47.030;15.396;2023-01-26T05:30:19;97853.06;;;1.74;100.00
22580;BME280;11456;47.030;15.396;2023-01-26T05:32:47;97847.22;;;1.83;100.00
22580;BME280;11456;47.030;15.396;2023-01-26T05:35:14;97843.78;;;1.81;100.00
22580;BME280;11456;47.030;15.396;2023-01-26T05:37:40;97858.00;;;1.80;100.00
22580;BME280;11456;47.030;15.396;2023-01-26T05:40:08;97851.56;;;1.70;100.00
22580;BME280;11456;47.030;15.396;2023-01-26T05:42:36;97853.28;;;1.71;100.00
22580;BME280;11456;47.030;15.396;2023-01-26T05:45:12;97852.13;;;1.60;100.00
22580;BME280;11456;47.030;15.396;2023-01-26T05:47:38;97850.59;;;1.56;100.00
22580;BME280;11456;47.030;15.396;2023-01-26T05:50:05;97849.09;;;1.52;100.00
22580;BME280;11456;47.030;15.396;2023-01-26T05:52:33;97853.53;;;1.52;100.00
22580;BME280;11456;47.030;15.396;2023-01-26T05:55:00;97847.00;;;1.57;100.00
22580;BME280;11456;47.030;15.396;2023-01-26T05:57:27;97854.19;;;1.55;100.00
22580;BME280;11456;47.030;15.396;2023-01-26T05:59:58;97841.72;;;1.86;100.00
22580;BME280;11456;47.030;15.396;2023-01-26T06:02:25;97848.94;;;1.84;100.00
22580;BME280;11456;47.030;15.396;2023-01-26T06:04:54;97852.47;;;1.54;100.00
22580;BME280;11456;47.030;15.396;2023-01-26T06:07:21;97848.59;;;1.46;100.00
22580;BME280;11456;47.030;15.396;2023-01-26T06:10:14;97850.00;;;1.37;100.00
22580;BME280;11456;47.030;15.396;2023-01-26T06:12:53;97856.22;;;1.94;100.00
22580;BME280;11456;47.030;15.396;2023-01-26T06:15:39;97847.53;;;1.48;100.00
22580;BME280;11456;47.030;15.396;2023-01-26T06:18:06;97848.84;;;1.41;100.00
22580;BME280;11456;47.030;15.396;2023-01-26T06:20:34;97850.97;;;1.50;100.00
22580;BME280;11456;47.030;15.396;2023-01-26T06:23:03;97846.09;;;1.73;100.00
22580;BME280;11456;47.030;15.396;2023-01-26T06:25:32;97853.06;;;1.74;100.00
22580;BME280;11456;47.030;15.396;2023-01-26T06:28:00;97842.56;;;1.58;100.00
22580;BME280;11456;47.030;15.396;2023-01-26T06:30:27;97842.91;;;1.52;100.00
22580;BME280;11456;47.030;15.396;2023-01-26T06:32:59;97835.00;;;1.66;100.00
22580;BME280;11456;47.030;15.396;2023-01-26T06:35:26;97840.13;;;1.97;100.00
22580;BME280;11456;47.030;15.396;2023-01-26T06:37:58;97836.78;;;1.80;100.00
22580;BME280;11456;47.030;15.396;2023-01-26T06:40:24;97837.94;;;1.90;100.00
22580;BME280;11456;47.030;15.396;2023-01-26T06:42:50;97834.03;;;1.81;100.00
22580;BME280;11456;47.030;15.396;2023-01-26T06:45:18;97838.59;;;1.93;100.00
22580;BME280;11456;47.030;15.396;2023-01-26T06:47:47;97836.78;;;1.80;100.00
22580;BME280;11456;47.030;15.396;2023-01-26T06:50:18;97836.41;;;1.86;100.00
22580;BME280;11456;47.030;15.396;2023-01-26T06:52:46;97835.84;;;1.95;100.00
22580;BME280;11456;47.030;15.396;2023-01-26T06:55:38;97838.97;;;1.87;100.00
22580;BME280;11456;47.030;15.396;2023-01-26T06:58:33;97832.41;;;1.93;100.00
22580;BME280;11456;47.030;15.396;2023-01-26T07:01:23;97836.59;;;1.83;100.00
22580;BME280;11456;47.030;15.396;2023-01-26T07:03:50;97831.19;;;1.84;100.00
22580;BME280;11456;47.030;15.396;2023-01-26T07:06:17;97830.44;;;1.82;100.00
22580;BME280;11456;47.030;15.396;2023-01-26T07:08:44;97830.34;;;1.98;100.00
22580;BME280;11456;47.030;15.396;2023-01-26T07:11:11;97832.06;;;1.85;100.00
22580;BME280;11456;47.030;15.396;2023-01-26T07:13:38;97826.47;;;1.89;100.00
22580;BME280;11456;47.030;15.396;2023-01-26T07:16:06;97827.69;;;1.84;100.00
22580;BME280;11456;47.030;15.396;2023-01-26T07:18:33;97828.59;;;2.25;99.94
22580;BME280;11456;47.030;15.396;2023-01-26T07:21:02;97826.31;;;2.33;98.00
22580;BME280;11456;47.030;15.396;2023-01-26T07:23:29;97824.28;;;2.10;98.68
22580;BME280;11456;47.030;15.396;2023-01-26T07:25:56;97824.47;;;1.79;98.99
22580;BME280;11456;47.030;15.396;2023-01-26T07:28:22;97821.41;;;1.99;98.98
22580;BME280;11456;47.030;15.396;2023-01-26T07:30:51;97826.72;;;1.99;98.86
22580;BME280;11456;47.030;15.396;2023-01-26T07:33:18;97822.94;;;2.17;98.99
22580;BME280;11456;47.030;15.396;2023-01-26T07:35:45;97815.13;;;2.42;97.35
22580;BME280;11456;47.030;15.396;2023-01-26T07:38:11;97828.22;;;2.31;98.04
22580;BME280;11456;47.030;15.396;2023-01-26T07:40:38;97824.44;;;2.07;97.90
22580;BME280;11456;47.030;15.396;2023-01-26T07:43:04;97828.44;;;2.14;97.67
22580;BME280;11456;47.030;15.396;2023-01-26T07:45:50;97823.34;;;2.11;97.36
22580;BME280;11456;47.030;15.396;2023-01-26T07:48:21;97829.59;;;2.10;97.96
22580;BME280;11456;47.030;15.396;2023-01-26T07:50:48;97824.75;;;2.17;98.72
22580;BME280;11456;47.030;15.396;2023-01-26T07:53:16;97833.06;;;2.25;98.09
22580;BME280;11456;47.030;15.396;2023-01-26T07:55:45;97826.53;;;2.16;97.98
22580;BME280;11456;47.030;15.396;2023-01-26T07:58:11;97829.00;;;2.19;98.80
22580;BME280;11456;47.030;15.396;2023-01-26T08:00:38;97829.75;;;2.35;98.70
22580;BME280;11456;47.030;15.396;2023-01-26T08:03:05;97832.78;;;1.87;100.00
22580;BME280;11456;47.030;15.396;2023-01-26T08:05:31;97840.22;;;2.10;99.99
22580;BME280;11456;47.030;15.396;2023-01-26T08:07:59;97838.28;;;2.12;100.00
22580;BME280;11456;47.030;15.396;2023-01-26T08:10:26;97830.97;;;2.71;97.64
22580;BME280;11456;47.030;15.396;2023-01-26T08:12:59;97841.34;;;2.20;98.73
22580;BME280;11456;47.030;15.396;2023-01-26T08:15:26;97842.88;;;2.10;99.54
22580;BME280;11456;47.030;15.396;2023-01-26T08:17:53;97841.81;;;1.98;99.95
22580;BME280;11456;47.030;15.396;2023-01-26T08:20:20;97838.50;;;1.95;99.92
22580;BME280;11456;47.030;15.396;2023-01-26T08:22:47;97834.81;;;1.97;99.68
22580;BME280;11456;47.030;15.396;2023-01-26T08:25:13;97833.00;;;1.84;99.98
22580;BME280;11456;47.030;15.396;2023-01-26T08:27:40;97840.78;;;2.01;100.00
22580;BME280;11456;47.030;15.396;2023-01-26T08:30:07;97835.63;;;2.26;98.12
22580;BME280;11456;47.030;15.396;2023-01-26T08:32:34;97845.97;;;2.31;97.54
22580;BME280;11456;47.030;15.396;2023-01-26T08:35:00;97843.22;;;2.18;98.16
22580;BME280;11456;47.030;15.396;2023-01-26T08:37:27;97844.19;;;2.03;98.83
22580;BME280;11456;47.030;15.396;2023-01-26T08:39:53;97840.22;;;2.10;98.57
22580;BME280;11456;47.030;15.396;2023-01-26T08:42:20;97849.91;;;2.11;99.40
22580;BME280;11456;47.030;15.396;2023-01-26T08:44:48;97843.25;;;1.90;99.75
22580;BME280;11456;47.030;15.396;2023-01-26T08:47:14;97840.03;;;1.85;100.00
22580;BME280;11456;47.030;15.396;2023-01-26T08:49:41;97846.66;;;1.92;100.00
22580;BME280;11456;47.030;15.396;2023-01-26T08:52:07;97845.50;;;1.82;100.00
22580;BME280;11456;47.030;15.396;2023-01-26T08:54:34;97841.16;;;1.95;100.00
22580;BME280;11456;47.030;15.396;2023-01-26T08:57:00;97845.59;;;1.94;100.00
22580;BME280;11456;47.030;15.396;2023-01-26T08:59:26;97844.97;;;1.91;100.00
22580;BME280;11456;47.030;15.396;2023-01-26T09:01:53;97844.59;;;2.11;100.00
22580;BME280;11456;47.030;15.396;2023-01-26T09:04:20;97845.31;;;2.13;100.00
22580;BME280;11456;47.030;15.396;2023-01-26T09:06:47;97837.41;;;2.40;98.42
22580;BME280;11456;47.030;15.396;2023-01-26T09:09:14;97834.91;;;2.51;96.84
22580;BME280;11456;47.030;15.396;2023-01-26T09:11:40;97842.19;;;2.21;98.15
22580;BME280;11456;47.030;15.396;2023-01-26T09:14:07;97839.13;;;2.41;97.11
22580;BME280;11456;47.030;15.396;2023-01-26T09:16:33;97845.59;;;1.94;99.26
22580;BME280;11456;47.030;15.396;2023-01-26T09:19:00;97846.47;;;1.95;99.89
22580;BME280;11456;47.030;15.396;2023-01-26T09:21:27;97856.72;;;1.73;99.68
22580;BME280;11456;47.030;15.396;2023-01-26T09:23:54;97851.56;;;2.12;99.09
22580;BME280;11456;47.030;15.396;2023-01-26T09:26:21;97858.31;;;1.89;99.18
22580;BME280;11456;47.030;15.396;2023-01-26T09:28:51;97855.59;;;1.91;99.96
22580;BME280;11456;47.030;15.396;2023-01-26T09:31:17;97854.91;;;1.87;100.00
22580;BME280;11456;47.030;15.396;2023-01-26T09:33:44;97859.09;;;1.91;99.92
22580;BME280;11456;47.030;15.396;2023-01-26T09:36:11;97851.31;;;1.88;99.95
22580;BME280;11456;47.030;15.396;2023-01-26T09:38:37;97850.63;;;2.27;98.99
22580;BME280;11456;47.030;15.396;2023-01-26T09:43:56;97857.47;;;2.03;98.29
22580;BME280;11456;47.030;15.396;2023-01-26T09:46:37;97854.44;;;1.95;98.56
22580;BME280;11456;47.030;15.396;2023-01-26T09:49:07;97850.84;;;2.10;98.93
22580;BME280;11456;47.030;15.396;2023-01-26T09:51:37;97842.28;;;2.05;97.72
22580;BME280;11456;47.030;15.396;2023-01-26T09:54:05;97844.75;;;1.80;99.43
22580;BME280;11456;47.030;15.396;2023-01-26T09:56:41;97835.09;;;1.79;99.65
22580;BME280;11456;47.030;15.396;2023-01-26T09:59:52;97837.47;;;1.83;99.68
22580;BME280;11456;47.030;15.396;2023-01-26T10:04:43;97833.00;;;1.84;99.84
22580;BME280;11456;47.030;15.396;2023-01-26T10:07:12;97824.94;;;1.85;98.78
22580;BME280;11456;47.030;15.396;2023-01-26T10:09:48;97826.16;;;1.94;98.63
22580;BME280;11456;47.030;15.396;2023-01-26T10:14:44;97815.69;;;2.33;96.03
22580;BME280;11456;47.030;15.396;2023-01-26T10:17:13;97816.25;;;2.24;96.87
22580;BME280;11456;47.030;15.396;2023-01-26T10:19:51;97804.13;;;2.34;95.39
22580;BME280;11456;47.030;15.396;2023-01-26T10:24:55;97796.78;;;2.79;94.48
22580;BME280;11456;47.030;15.396;2023-01-26T10:27:22;97793.75;;;2.71;92.40
22580;BME280;11456;47.030;15.396;2023-01-26T10:29:48;97790.22;;;2.43;93.29
22580;BME280;11456;47.030;15.396;2023-01-26T10:32:16;97788.72;;;2.39;93.91
22580;BME280;11456;47.030;15.396;2023-01-26T10:34:44;97780.00;;;2.37;94.71
22580;BME280;11456;47.030;15.396;2023-01-26T10:40:07;97777.09;;;2.55;92.03
22580;BME280;11456;47.030;15.396;2023-01-26T10:42:34;97777.09;;;2.55;92.27
22580;BME280;11456;47.030;15.396;2023-01-26T10:45:05;97769.47;;;2.63;90.82
22580;BME280;11456;47.030;15.396;2023-01-26T10:47:32;97764.38;;;2.60;90.46
22580;BME280;11456;47.030;15.396;2023-01-26T10:50:17;97754.91;;;2.56;90.18
22580;BME280;11456;47.030;15.396;2023-01-26T10:52:58;97748.19;;;2.63;90.79
22580;BME280;11456;47.030;15.396;2023-01-26T10:55:25;97751.66;;;2.51;90.18
22580;BME280;11456;47.030;15.396;2023-01-26T10:57:52;97754.94;;;2.41;89.94
22580;BME280;11456;47.030;15.396;2023-01-26T11:02:52;97736.47;;;2.53;88.76
22580;BME280;11456;47.030;15.396;2023-01-26T11:07:47;97731.09;;;2.67;88.05
22580;BME280;11456;47.030;15.396;2023-01-26T11:12:41;97724.94;;;3.18;85.30
22580;BME280;11456;47.030;15.396;2023-01-26T11:15:26;97718.38;;;2.85;84.63
22580;BME280;11456;47.030;15.396;2023-01-26T11:17:59;97712.69;;;2.64;84.82
22580;BME280;11456;47.030;15.396;2023-01-26T11:20:47;97714.44;;;2.90;85.84
22580;BME280;11456;47.030;15.396;2023-01-26T11:26:00;97710.31;;;2.86;84.01
22580;BME280;11456;47.030;15.396;2023-01-26T11:28:40;97702.75;;;2.80;83.19
22580;BME280;11456;47.030;15.396;2023-01-26T11:31:15;97698.94;;;3.35;83.03
22580;BME280;11456;47.030;15.396;2023-01-26T11:38:38;97696.78;;;2.89;82.08
22580;BME280;11456;47.030;15.396;2023-01-26T11:41:25;97689.91;;;2.60;85.36
22580;BME280;11456;47.030;15.396;2023-01-26T11:46:33;97677.59;;;2.71;84.88
22580;BME280;11456;47.030;15.396;2023-01-26T11:55:12;97668.53;;;3.13;83.52
22580;BME280;11456;47.030;15.396;2023-01-26T11:59:43;97650.00;;;2.99;80.59
22580;BME280;11456;47.030;15.396;2023-01-26T12:04:57;97648.81;;;3.29;79.21
22580;BME280;11456;47.030;15.396;2023-01-26T12:07:29;97638.69;;;2.83;79.90
22580;BME280;11456;47.030;15.396;2023-01-26T12:09:56;97637.97;;;2.81;81.11
22580;BME280;11456;47.030;15.396;2023-01-26T12:12:36;97640.19;;;2.87;80.79
22580;BME280;11456;47.030;15.396;2023-01-26T12:15:08;97631.47;;;3.10;80.95
22580;BME280;11456;47.030;15.396;2023-01-26T12:22:45;97624.66;;;3.06;81.24
22580;BME280;11456;47.030;15.396;2023-01-26T12:28:06;97621.66;;;2.73;83.37
22580;BME280;11456;47.030;15.396;2023-01-26T12:33:22;97612.75;;;2.99;80.57
22580;BME280;11456;47.030;15.396;2023-01-26T12:38:20;97604.44;;;2.91;82.84
22580;BME280;11456;47.030;15.396;2023-01-26T12:41:01;97611.25;;;2.95;82.78
22580;BME280;11456;47.030;15.396;2023-01-26T12:46:16;97603.59;;;2.78;81.74
22580;BME280;11456;47.030;15.396;2023-01-26T12:48:47;97596.78;;;2.87;81.41
22580;BME280;11456;47.030;15.396;2023-01-26T12:51:27;97610.38;;;3.07;80.56
22580;BME280;11456;47.030;15.396;2023-01-26T12:56:36;97592.81;;;3.30;78.60
22580;BME280;11456;47.030;15.396;2023-01-26T12:59:06;97597.84;;;3.09;79.27
22580;BME280;11456;47.030;15.396;2023-01-26T13:01:37;97594.84;;;3.01;81.69
22580;BME280;11456;47.030;15.396;2023-01-26T13:04:08;97589.81;;;3.35;80.35
22580;BME280;11456;47.030;15.396;2023-01-26T13:06:36;97586.31;;;3.34;80.04
22580;BME280;11456;47.030;15.396;2023-01-26T13:09:16;97587.31;;;2.95;80.28
22580;BME280;11456;47.030;15.396;2023-01-26T13:11:51;97589.41;;;3.15;80.71
22580;BME280;11456;47.030;15.396;2023-01-26T13:14:26;97587.81;;;3.26;78.38
22580;BME280;11456;47.030;15.396;2023-01-26T13:16:53;97589.63;;;3.25;79.00
22580;BME280;11456;47.030;15.396;2023-01-26T13:22:17;97585.47;;;3.08;78.06
22580;BME280;11456;47.030;15.396;2023-01-26T13:30:03;97588.13;;;3.08;77.51
22580;BME280;11456;47.030;15.396;2023-01-26T13:35:16;97584.84;;;3.17;78.13
22580;BME280;11456;47.030;15.396;2023-01-26T13:37:48;97581.81;;;3.35;77.24
22580;BME280;11456;47.030;15.396;2023-01-26T13:40:20;97584.81;;;3.30;77.57
22580;BME280;11456;47.030;15.396;2023-01-26T13:42:56;97579.06;;;3.36;77.81
22580;BME280;11456;47.030;15.396;2023-01-26T13:47:51;97580.41;;;3.05;75.18
22580;BME280;11456;47.030;15.396;2023-01-26T13:50:32;97574.00;;;2.95;75.72
22580;BME280;11456;47.030;15.396;2023-01-26T13:52:59;97576.97;;;3.16;75.66
22580;BME280;11456;47.030;15.396;2023-01-26T13:55:28;97579.97;;;3.11;77.17
22580;BME280;11456;47.030;15.396;2023-01-26T14:00:37;97589.53;;;3.01;76.37
22580;BME280;11456;47.030;15.396;2023-01-26T14:03:04;97582.47;;;3.38;73.74
22580;BME280;11456;47.030;15.396;2023-01-26T14:05:30;97587.41;;;3.19;74.33
22580;BME280;11456;47.030;15.396;2023-01-26T14:07:57;97576.13;;;3.15;74.85
22580;BME280;11456;47.030;15.396;2023-01-26T14:10:26;97578.06;;;3.13;75.20
22580;BME280;11456;47.030;15.396;2023-01-26T14:12:53;97580.59;;;3.02;76.85
22580;BME280;11456;47.030;15.396;2023-01-26T14:15:25;97576.78;;;3.06;77.20
22580;BME280;11456;47.030;15.396;2023-01-26T14:17:56;97582.06;;;3.32;76.27
22580;BME280;11456;47.030;15.396;2023-01-26T14:20:25;97580.97;;;3.34;76.59
22580;BME280;11456;47.030;15.396;2023-01-26T14:23:25;97584.56;;;3.46;76.93
22580;BME280;11456;47.030;15.396;2023-01-26T14:25:46;97587.81;;;3.38;76.17
22580;BME280;11456;47.030;15.396;2023-01-26T14:28:13;97588.09;;;3.34;75.92
22580;BME280;11456;47.030;15.396;2023-01-26T14:30:41;97585.75;;;3.42;75.25
22580;BME280;11456;47.030;15.396;2023-01-26T14:33:14;97591.84;;;3.44;75.61
22580;BME280;11456;47.030;15.396;2023-01-26T14:35:42;97588.03;;;3.22;75.79
22580;BME280;11456;47.030;15.396;2023-01-26T14:38:19;97592.78;;;3.43;75.94
22580;BME280;11456;47.030;15.396;2023-01-26T14:40:49;97598.31;;;3.89;74.59